sensor_id;sensor_type;location;lat;lon;timestamp;P1;durP1;ratioP1;P2;durP2;ratioP2
69485;SDS011;56677;51.710;5.366;2022-11-11T06:42:01;5.77;;;3.80;;
69485;SDS011;56677;51.710;5.366;2022-11-11T06:44:26;6.82;;;4.15;;
69485;SDS011;56677;51.710;5.366;2022-11-11T06:46:51;5.60;;;3.55;;
69485;SDS011;56677;51.710;5.366;2022-11-11T06:49:16;6.00;;;4.00;;
69485;SDS011;56677;51.710;5.366;2022-11-11T06:51:42;5.03;;;3.58;;
69485;SDS011;56677;51.710;5.366;2022-11-11T06:54:07;4.72;;;3.88;;
69485;SDS011;56677;51.710;5.366;2022-11-11T06:56:32;6.63;;;3.53;;
69485;SDS011;56677;51.710;5.366;2022-11-11T06:58:57;5.87;;;3.83;;
69485;SDS011;56677;51.710;5.366;2022-11-11T07:01:22;5.47;;;3.60;;
69485;SDS011;56677;51.710;5.366;2022-11-11T07:03:47;6.00;;;3.60;;
69485;SDS011;56677;51.710;5.366;2022-11-11T07:06:12;5.25;;;3.40;;
69485;SDS011;56677;51.710;5.366;2022-11-11T07:08:37;5.68;;;3.67;;
69485;SDS011;56677;51.710;5.366;2022-11-11T07:11:03;5.18;;;3.58;;
69485;SDS011;56677;51.710;5.366;2022-11-11T07:13:28;6.07;;;4.00;;
69485;SDS011;56677;51.710;5.366;2022-11-11T07:15:53;5.47;;;3.38;;
69485;SDS011;56677;51.710;5.366;2022-11-11T07:18:18;6.35;;;3.47;;
69485;SDS011;56677;51.710;5.366;2022-11-11T07:20:43;6.00;;;2.92;;
69485;SDS011;56677;51.710;5.366;2022-11-11T07:23:08;5.17;;;3.47;;
69485;SDS011;56677;51.710;5.366;2022-11-11T07:25:33;5.70;;;3.30;;
69485;SDS011;56677;51.710;5.366;2022-11-11T07:27:59;5.70;;;3.27;;
69485;SDS011;56677;51.710;5.366;2022-11-11T07:30:24;8.68;;;3.53;;
69485;SDS011;56677;51.710;5.366;2022-11-11T07:32:50;4.70;;;3.40;;
69485;SDS011;56677;51.710;5.366;2022-11-11T07:35:15;5.05;;;3.17;;
69485;SDS011;56677;51.710;5.366;2022-11-11T07:37:41;5.23;;;3.43;;
69485;SDS011;56677;51.710;5.366;2022-11-11T07:40:06;6.80;;;3.28;;
69485;SDS011;56677;51.710;5.366;2022-11-11T07:42:34;5.10;;;3.30;;
69485;SDS011;56677;51.710;5.366;2022-11-11T07:44:59;7.47;;;3.03;;
69485;SDS011;56677;51.710;5.366;2022-11-11T07:47:25;5.70;;;3.20;;
69485;SDS011;56677;51.710;5.366;2022-11-11T07:49:50;6.47;;;3.65;;
69485;SDS011;56677;51.710;5.366;2022-11-11T07:52:15;5.65;;;3.92;;
69485;SDS011;56677;51.710;5.366;2022-11-11T07:54:40;4.32;;;2.80;;
69485;SDS011;56677;51.710;5.366;2022-11-11T07:57:05;7.68;;;3.20;;
69485;SDS011;56677;51.710;5.366;2022-11-11T07:59:30;7.65;;;3.42;;
69485;SDS011;56677;51.710;5.366;2022-11-11T08:01:55;5.83;;;3.33;;
69485;SDS011;56677;51.710;5.366;2022-11-11T08:04:20;5.18;;;3.30;;
69485;SDS011;56677;51.710;5.366;2022-11-11T08:06:45;4.80;;;3.10;;
69485;SDS011;56677;51.710;5.366;2022-11-11T08:09:10;6.05;;;3.25;;
69485;SDS011;56677;51.710;5.366;2022-11-11T08:11:36;5.22;;;3.05;;
69485;SDS011;56677;51.710;5.366;2022-11-11T08:14:01;5.93;;;3.50;;
69485;SDS011;56677;51.710;5.366;2022-11-11T08:16:26;5.00;;;3.25;;
69485;SDS011;56677;51.710;5.366;2022-11-11T08:18:51;6.25;;;3.28;;
69485;SDS011;56677;51.710;5.366;2022-11-11T08:21:16;6.17;;;3.50;;
69485;SDS011;56677;51.710;5.366;2022-11-11T08:23:41;5.68;;;3.47;;
69485;SDS011;56677;51.710;5.366;2022-11-11T08:26:06;6.07;;;2.88;;
69485;SDS011;56677;51.710;5.366;2022-11-11T08:28:32;4.70;;;3.10;;
69485;SDS011;56677;51.710;5.366;2022-11-11T08:30:58;5.47;;;2.75;;
69485;SDS011;56677;51.710;5.366;2022-11-11T08:33:23;6.20;;;3.17;;
69485;SDS011;56677;51.710;5.366;2022-11-11T08:35:48;4.72;;;3.05;;
69485;SDS011;56677;51.710;5.366;2022-11-11T08:38:13;4.50;;;2.70;;
69485;SDS011;56677;51.710;5.366;2022-11-11T08:40:39;5.32;;;2.70;;
69485;SDS011;56677;51.710;5.366;2022-11-11T08:43:04;6.13;;;2.90;;
69485;SDS011;56677;51.710;5.366;2022-11-11T08:45:29;4.40;;;2.67;;
69485;SDS011;56677;51.710;5.366;2022-11-11T08:47:54;6.47;;;2.90;;
69485;SDS011;56677;51.710;5.366;2022-11-11T08:50:19;4.32;;;2.58;;
69485;SDS011;56677;51.710;5.366;2022-11-11T08:52:48;5.37;;;2.90;;
69485;SDS011;56677;51.710;5.366;2022-11-11T08:55:13;6.68;;;3.00;;
69485;SDS011;56677;51.710;5.366;2022-11-11T08:57:38;5.30;;;2.77;;
69485;SDS011;56677;51.710;5.366;2022-11-11T09:00:04;4.63;;;2.80;;
69485;SDS011;56677;51.710;5.366;2022-11-11T09:02:29;5.63;;;2.78;;
69485;SDS011;56677;51.710;5.366;2022-11-11T09:04:54;5.25;;;2.90;;
69485;SDS011;56677;51.710;5.366;2022-11-11T09:07:19;5.55;;;2.88;;
69485;SDS011;56677;51.710;5.366;2022-11-11T09:09:45;5.17;;;2.80;;
69485;SDS011;56677;51.710;5.366;2022-11-11T09:12:10;4.43;;;3.00;;
69485;SDS011;56677;51.710;5.366;2022-11-11T09:14:35;4.17;;;2.80;;
69485;SDS011;56677;51.710;5.366;2022-11-11T09:17:00;5.27;;;2.80;;
69485;SDS011;56677;51.710;5.366;2022-11-11T09:19:25;5.25;;;2.90;;
69485;SDS011;56677;51.710;5.366;2022-11-11T09:21:50;5.00;;;3.07;;
69485;SDS011;56677;51.710;5.366;2022-11-11T09:24:16;4.33;;;2.90;;
69485;SDS011;56677;51.710;5.366;2022-11-11T09:26:41;5.50;;;3.30;;
69485;SDS011;56677;51.710;5.366;2022-11-11T09:29:06;6.00;;;3.45;;
69485;SDS011;56677;51.710;5.366;2022-11-11T09:31:31;6.20;;;3.10;;
69485;SDS011;56677;51.710;5.366;2022-11-11T09:33:56;4.43;;;2.63;;
69485;SDS011;56677;51.710;5.366;2022-11-11T09:36:21;5.57;;;3.13;;
69485;SDS011;56677;51.710;5.366;2022-11-11T09:38:46;4.40;;;2.75;;
69485;SDS011;56677;51.710;5.366;2022-11-11T09:41:14;4.18;;;3.25;;
69485;SDS011;56677;51.710;5.366;2022-11-11T09:43:53;5.05;;;2.83;;
69485;SDS011;56677;51.710;5.366;2022-11-11T09:49:09;5.07;;;2.75;;
69485;SDS011;56677;51.710;5.366;2022-11-11T09:51:31;4.65;;;3.30;;
69485;SDS011;56677;51.710;5.366;2022-11-11T09:53:58;5.07;;;3.20;;
69485;SDS011;56677;51.710;5.366;2022-11-11T09:56:25;5.85;;;3.08;;
69485;SDS011;56677;51.710;5.366;2022-11-11T09:58:52;4.28;;;2.90;;
69485;SDS011;56677;51.710;5.366;2022-11-11T10:01:22;4.77;;;3.13;;
69485;SDS011;56677;51.710;5.366;2022-11-11T10:03:51;4.28;;;2.80;;
69485;SDS011;56677;51.710;5.366;2022-11-11T10:06:22;5.80;;;3.22;;
69485;SDS011;56677;51.710;5.366;2022-11-11T10:08:55;3.92;;;2.80;;
69485;SDS011;56677;51.710;5.366;2022-11-11T10:11:28;4.78;;;2.75;;
69485;SDS011;56677;51.710;5.366;2022-11-11T10:13:54;9.80;;;3.53;;
69485;SDS011;56677;51.710;5.366;2022-11-11T10:16:24;5.65;;;2.97;;
69485;SDS011;56677;51.710;5.366;2022-11-11T10:21:20;7.07;;;2.80;;
69485;SDS011;56677;51.710;5.366;2022-11-11T10:23:46;5.47;;;3.38;;
69485;SDS011;56677;51.710;5.366;2022-11-11T10:26:17;7.50;;;2.80;;
69485;SDS011;56677;51.710;5.366;2022-11-11T10:28:43;7.45;;;2.47;;
69485;SDS011;56677;51.710;5.366;2022-11-11T10:31:12;8.30;;;2.88;;
69485;SDS011;56677;51.710;5.366;2022-11-11T10:33:47;7.03;;;3.10;;
69485;SDS011;56677;51.710;5.366;2022-11-11T10:36:15;6.20;;;2.67;;
69485;SDS011;56677;51.710;5.366;2022-11-11T10:41:10;5.72;;;3.20;;
69485;SDS011;56677;51.710;5.366;2022-11-11T10:43:38;6.00;;;3.10;;
69485;SDS011;56677;51.710;5.366;2022-11-11T10:46:06;8.30;;;2.67;;
69485;SDS011;56677;51.710;5.366;2022-11-11T10:48:38;4.15;;;2.17;;
69485;SDS011;56677;51.710;5.366;2022-11-11T10:51:05;6.53;;;2.90;;
69485;SDS011;56677;51.710;5.366;2022-11-11T10:53:37;8.65;;;3.05;;
69485;SDS011;56677;51.710;5.366;2022-11-11T10:56:06;7.77;;;2.83;;
69485;SDS011;56677;51.710;5.366;2022-11-11T10:58:34;8.23;;;2.47;;
69485;SDS011;56677;51.710;5.366;2022-11-11T11:01:01;7.88;;;2.70;;
69485;SDS011;56677;51.710;5.366;2022-11-11T11:03:29;4.07;;;2.50;;
69485;SDS011;56677;51.710;5.366;2022-11-11T11:08:28;6.10;;;2.50;;
69485;SDS011;56677;51.710;5.366;2022-11-11T11:10:56;6.67;;;2.73;;
69485;SDS011;56677;51.710;5.366;2022-11-11T11:13:33;6.78;;;2.75;;
69485;SDS011;56677;51.710;5.366;2022-11-11T11:16:05;4.53;;;2.67;;
69485;SDS011;56677;51.710;5.366;2022-11-11T11:18:30;3.90;;;2.20;;
69485;SDS011;56677;51.710;5.366;2022-11-11T11:21:03;6.30;;;2.60;;
69485;SDS011;56677;51.710;5.366;2022-11-11T11:26:03;4.43;;;2.40;;
69485;SDS011;56677;51.710;5.366;2022-11-11T11:28:28;4.90;;;2.47;;
69485;SDS011;56677;51.710;5.366;2022-11-11T11:31:03;6.18;;;2.53;;
69485;SDS011;56677;51.710;5.366;2022-11-11T11:33:48;7.40;;;3.28;;
69485;SDS011;56677;51.710;5.366;2022-11-11T11:36:16;6.55;;;3.40;;
69485;SDS011;56677;51.710;5.366;2022-11-11T11:38:43;8.15;;;3.58;;
69485;SDS011;56677;51.710;5.366;2022-11-11T11:41:08;10.07;;;4.00;;
69485;SDS011;56677;51.710;5.366;2022-11-11T11:43:34;9.55;;;4.68;;
69485;SDS011;56677;51.710;5.366;2022-11-11T11:46:02;10.75;;;5.25;;
69485;SDS011;56677;51.710;5.366;2022-11-11T11:56:12;16.77;;;5.67;;
69485;SDS011;56677;51.710;5.366;2022-11-11T12:01:40;11.65;;;5.65;;
69485;SDS011;56677;51.710;5.366;2022-11-11T12:04:14;9.05;;;5.20;;
69485;SDS011;56677;51.710;5.366;2022-11-11T12:11:52;9.52;;;5.20;;
69485;SDS011;56677;51.710;5.366;2022-11-11T12:24:52;9.13;;;4.65;;
69485;SDS011;56677;51.710;5.366;2022-11-11T12:27:31;8.95;;;4.20;;
69485;SDS011;56677;51.710;5.366;2022-11-11T12:30:00;12.50;;;4.95;;
69485;SDS011;56677;51.710;5.366;2022-11-11T12:32:31;9.32;;;4.18;;
69485;SDS011;56677;51.710;5.366;2022-11-11T12:37:42;8.05;;;3.97;;
69485;SDS011;56677;51.710;5.366;2022-11-11T12:40:14;7.75;;;4.50;;
69485;SDS011;56677;51.710;5.366;2022-11-11T12:42:54;9.73;;;4.57;;
69485;SDS011;56677;51.710;5.366;2022-11-11T12:45:22;8.15;;;4.50;;
69485;SDS011;56677;51.710;5.366;2022-11-11T12:48:01;8.10;;;4.50;;
69485;SDS011;56677;51.710;5.366;2022-11-11T12:58:17;12.63;;;3.83;;
69485;SDS011;56677;51.710;5.366;2022-11-11T13:08:45;9.40;;;3.50;;
69485;SDS011;56677;51.710;5.366;2022-11-11T13:16:23;9.63;;;3.80;;
69485;SDS011;56677;51.710;5.366;2022-11-11T13:21:52;7.85;;;3.83;;
69485;SDS011;56677;51.710;5.366;2022-11-11T13:24:21;7.45;;;3.38;;
69485;SDS011;56677;51.710;5.366;2022-11-11T13:26:48;6.93;;;3.58;;
69485;SDS011;56677;51.710;5.366;2022-11-11T13:31:57;7.80;;;3.03;;
69485;SDS011;56677;51.710;5.366;2022-11-11T13:34:24;7.65;;;3.28;;
69485;SDS011;56677;51.710;5.366;2022-11-11T13:36:51;6.82;;;3.50;;
69485;SDS011;56677;51.710;5.366;2022-11-11T13:39:21;5.65;;;2.90;;
69485;SDS011;56677;51.710;5.366;2022-11-11T13:41:48;7.13;;;3.60;;
69485;SDS011;56677;51.710;5.366;2022-11-11T13:44:18;6.47;;;3.22;;
69485;SDS011;56677;51.710;5.366;2022-11-11T13:46:45;7.25;;;3.15;;
69485;SDS011;56677;51.710;5.366;2022-11-11T13:49:21;8.67;;;3.50;;
69485;SDS011;56677;51.710;5.366;2022-11-11T13:51:56;7.35;;;3.17;;
69485;SDS011;56677;51.710;5.366;2022-11-11T13:56:49;6.53;;;3.38;;
69485;SDS011;56677;51.710;5.366;2022-11-11T14:01:46;6.32;;;3.03;;
69485;SDS011;56677;51.710;5.366;2022-11-11T14:04:11;5.68;;;2.90;;
69485;SDS011;56677;51.710;5.366;2022-11-11T14:06:37;7.55;;;3.47;;
69485;SDS011;56677;51.710;5.366;2022-11-11T14:09:12;7.97;;;3.22;;
69485;SDS011;56677;51.710;5.366;2022-11-11T14:14:55;5.97;;;3.27;;
69485;SDS011;56677;51.710;5.366;2022-11-11T14:17:21;7.15;;;3.20;;
69485;SDS011;56677;51.710;5.366;2022-11-11T14:19:46;5.43;;;2.90;;
69485;SDS011;56677;51.710;5.366;2022-11-11T14:22:27;7.63;;;3.03;;
69485;SDS011;56677;51.710;5.366;2022-11-11T14:24:53;6.25;;;2.90;;
69485;SDS011;56677;51.710;5.366;2022-11-11T14:27:20;8.53;;;3.33;;
69485;SDS011;56677;51.710;5.366;2022-11-11T14:29:48;5.80;;;3.13;;
69485;SDS011;56677;51.710;5.366;2022-11-11T14:35:12;4.78;;;3.00;;
69485;SDS011;56677;51.710;5.366;2022-11-11T14:40:07;5.47;;;2.65;;
69485;SDS011;56677;51.710;5.366;2022-11-11T14:44:59;7.00;;;2.92;;
69485;SDS011;56677;51.710;5.366;2022-11-11T14:47:30;4.23;;;2.70;;
69485;SDS011;56677;51.710;5.366;2022-11-11T14:49:55;7.13;;;3.10;;
69485;SDS011;56677;51.710;5.366;2022-11-11T14:52:40;6.07;;;3.47;;
69485;SDS011;56677;51.710;5.366;2022-11-11T14:55:12;4.60;;;2.80;;
69485;SDS011;56677;51.710;5.366;2022-11-11T14:57:46;5.72;;;2.53;;
69485;SDS011;56677;51.710;5.366;2022-11-11T15:00:30;7.03;;;3.00;;
69485;SDS011;56677;51.710;5.366;2022-11-11T15:03:06;5.47;;;2.20;;
69485;SDS011;56677;51.710;5.366;2022-11-11T15:08:41;4.70;;;2.67;;
69485;SDS011;56677;51.710;5.366;2022-11-11T15:23:20;5.70;;;2.50;;
69485;SDS011;56677;51.710;5.366;2022-11-11T15:28:41;7.50;;;2.70;;
69485;SDS011;56677;51.710;5.366;2022-11-11T15:36:25;4.88;;;2.25;;
69485;SDS011;56677;51.710;5.366;2022-11-11T15:38:52;4.55;;;2.65;;
69485;SDS011;56677;51.710;5.366;2022-11-11T15:41:20;4.40;;;2.40;;
69485;SDS011;56677;51.710;5.366;2022-11-11T15:43:46;6.05;;;2.67;;
69485;SDS011;56677;51.710;5.366;2022-11-11T15:46:12;4.40;;;2.57;;
69485;SDS011;56677;51.710;5.366;2022-11-11T15:48:43;4.43;;;2.60;;
69485;SDS011;56677;51.710;5.366;2022-11-11T15:51:25;9.33;;;3.13;;
69485;SDS011;56677;51.710;5.366;2022-11-11T15:53:51;6.30;;;3.00;;
69485;SDS011;56677;51.710;5.366;2022-11-11T15:56:27;10.43;;;3.08;;
69485;SDS011;56677;51.710;5.366;2022-11-11T15:58:52;4.50;;;2.65;;
69485;SDS011;56677;51.710;5.366;2022-11-11T16:01:17;7.70;;;2.75;;
69485;SDS011;56677;51.710;5.366;2022-11-11T16:03:42;6.83;;;2.90;;
69485;SDS011;56677;51.710;5.366;2022-11-11T16:06:09;7.63;;;3.37;;
69485;SDS011;56677;51.710;5.366;2022-11-11T16:08:34;4.60;;;2.90;;
69485;SDS011;56677;51.710;5.366;2022-11-11T16:10:59;4.25;;;2.78;;
69485;SDS011;56677;51.710;5.366;2022-11-11T16:13:36;5.73;;;2.50;;
69485;SDS011;56677;51.710;5.366;2022-11-11T16:16:04;5.00;;;2.20;;
69485;SDS011;56677;51.710;5.366;2022-11-11T16:18:37;4.50;;;2.20;;
69485;SDS011;56677;51.710;5.366;2022-11-11T16:21:08;5.33;;;2.40;;
69485;SDS011;56677;51.710;5.366;2022-11-11T16:23:34;4.07;;;2.25;;
69485;SDS011;56677;51.710;5.366;2022-11-11T16:26:01;3.53;;;2.40;;
69485;SDS011;56677;51.710;5.366;2022-11-11T16:28:26;5.37;;;2.17;;
69485;SDS011;56677;51.710;5.366;2022-11-11T16:30:55;4.25;;;2.58;;
69485;SDS011;56677;51.710;5.366;2022-11-11T16:35:51;5.32;;;2.88;;
69485;SDS011;56677;51.710;5.366;2022-11-11T16:38:29;5.30;;;2.60;;
69485;SDS011;56677;51.710;5.366;2022-11-11T16:40:54;3.90;;;2.67;;
69485;SDS011;56677;51.710;5.366;2022-11-11T16:45:45;4.32;;;2.40;;
69485;SDS011;56677;51.710;5.366;2022-11-11T16:50:55;3.90;;;2.42;;
69485;SDS011;56677;51.710;5.366;2022-11-11T16:53:25;4.30;;;2.53;;
69485;SDS011;56677;51.710;5.366;2022-11-11T16:55:51;4.30;;;2.70;;
69485;SDS011;56677;51.710;5.366;2022-11-11T16:58:17;4.37;;;2.60;;
69485;SDS011;56677;51.710;5.366;2022-11-11T17:00:43;6.20;;;3.03;;
69485;SDS011;56677;51.710;5.366;2022-11-11T17:03:10;4.18;;;2.40;;
69485;SDS011;56677;51.710;5.366;2022-11-11T17:08:26;5.07;;;2.50;;
69485;SDS011;56677;51.710;5.366;2022-11-11T17:10:52;4.43;;;2.05;;
69485;SDS011;56677;51.710;5.366;2022-11-11T17:13:17;3.97;;;2.27;;
69485;SDS011;56677;51.710;5.366;2022-11-11T17:15:42;4.28;;;2.55;;
69485;SDS011;56677;51.710;5.366;2022-11-11T17:18:07;4.67;;;2.30;;
69485;SDS011;56677;51.710;5.366;2022-11-11T17:20:32;3.90;;;2.35;;
69485;SDS011;56677;51.710;5.366;2022-11-11T17:22:57;5.90;;;2.80;;
69485;SDS011;56677;51.710;5.366;2022-11-11T17:25:23;4.30;;;2.70;;
69485;SDS011;56677;51.710;5.366;2022-11-11T17:27:48;4.47;;;2.65;;
69485;SDS011;56677;51.710;5.366;2022-11-11T17:30:13;3.40;;;2.05;;
69485;SDS011;56677;51.710;5.366;2022-11-11T17:32:38;4.10;;;2.23;;
69485;SDS011;56677;51.710;5.366;2022-11-11T17:35:04;3.70;;;2.30;;
69485;SDS011;56677;51.710;5.366;2022-11-11T17:37:32;3.70;;;2.10;;
69485;SDS011;56677;51.710;5.366;2022-11-11T17:39:57;3.92;;;2.28;;
69485;SDS011;56677;51.710;5.366;2022-11-11T17:42:22;4.70;;;2.55;;
69485;SDS011;56677;51.710;5.366;2022-11-11T17:44:47;4.25;;;2.30;;
69485;SDS011;56677;51.710;5.366;2022-11-11T17:47:12;5.68;;;2.70;;
69485;SDS011;56677;51.710;5.366;2022-11-11T17:49:37;4.15;;;2.33;;
69485;SDS011;56677;51.710;5.366;2022-11-11T17:52:03;3.90;;;2.38;;
69485;SDS011;56677;51.710;5.366;2022-11-11T17:54:28;4.40;;;2.60;;
69485;SDS011;56677;51.710;5.366;2022-11-11T17:56:53;4.63;;;2.70;;
69485;SDS011;56677;51.710;5.366;2022-11-11T17:59:18;3.50;;;2.17;;
69485;SDS011;56677;51.710;5.366;2022-11-11T18:01:43;4.87;;;2.60;;
69485;SDS011;56677;51.710;5.366;2022-11-11T18:04:08;4.93;;;2.40;;
69485;SDS011;56677;51.710;5.366;2022-11-11T18:06:33;3.35;;;2.53;;
69485;SDS011;56677;51.710;5.366;2022-11-11T18:08:59;5.10;;;2.85;;
69485;SDS011;56677;51.710;5.366;2022-11-11T18:11:24;3.70;;;2.53;;
69485;SDS011;56677;51.710;5.366;2022-11-11T18:13:49;3.85;;;2.20;;
69485;SDS011;56677;51.710;5.366;2022-11-11T18:16:19;3.85;;;2.47;;
69485;SDS011;56677;51.710;5.366;2022-11-11T18:18:44;5.95;;;2.90;;
69485;SDS011;56677;51.710;5.366;2022-11-11T18:21:10;4.38;;;2.50;;
69485;SDS011;56677;51.710;5.366;2022-11-11T18:23:36;4.50;;;2.40;;
69485;SDS011;56677;51.710;5.366;2022-11-11T18:26:01;3.85;;;2.42;;
69485;SDS011;56677;51.710;5.366;2022-11-11T18:28:33;4.63;;;2.47;;
69485;SDS011;56677;51.710;5.366;2022-11-11T18:33:27;3.42;;;2.28;;
69485;SDS011;56677;51.710;5.366;2022-11-11T18:35:52;3.53;;;2.20;;
69485;SDS011;56677;51.710;5.366;2022-11-11T18:38:17;3.90;;;2.17;;
69485;SDS011;56677;51.710;5.366;2022-11-11T18:40:42;5.55;;;2.25;;
69485;SDS011;56677;51.710;5.366;2022-11-11T18:43:07;4.40;;;2.60;;
69485;SDS011;56677;51.710;5.366;2022-11-11T18:45:34;4.05;;;2.40;;
69485;SDS011;56677;51.710;5.366;2022-11-11T18:47:59;3.83;;;2.28;;
69485;SDS011;56677;51.710;5.366;2022-11-11T18:50:24;4.72;;;2.25;;
69485;SDS011;56677;51.710;5.366;2022-11-11T18:52:49;3.78;;;2.47;;
69485;SDS011;56677;51.710;5.366;2022-11-11T18:55:14;4.05;;;2.28;;
69485;SDS011;56677;51.710;5.366;2022-11-11T18:57:39;4.83;;;2.63;;
69485;SDS011;56677;51.710;5.366;2022-11-11T19:00:05;3.85;;;2.10;;
69485;SDS011;56677;51.710;5.366;2022-11-11T19:02:30;4.65;;;2.50;;
69485;SDS011;56677;51.710;5.366;2022-11-11T19:04:55;4.13;;;2.60;;
69485;SDS011;56677;51.710;5.366;2022-11-11T19:07:20;4.40;;;2.30;;
69485;SDS011;56677;51.710;5.366;2022-11-11T19:09:45;4.15;;;2.40;;
69485;SDS011;56677;51.710;5.366;2022-11-11T19:12:10;3.95;;;2.40;;
69485;SDS011;56677;51.710;5.366;2022-11-11T19:14:36;4.53;;;2.35;;
69485;SDS011;56677;51.710;5.366;2022-11-11T19:17:01;3.50;;;2.00;;
69485;SDS011;56677;51.710;5.366;2022-11-11T19:19:26;3.03;;;2.20;;
69485;SDS011;56677;51.710;5.366;2022-11-11T19:21:51;4.28;;;2.38;;
69485;SDS011;56677;51.710;5.366;2022-11-11T19:24:16;4.28;;;2.60;;
69485;SDS011;56677;51.710;5.366;2022-11-11T19:26:41;3.53;;;2.50;;
69485;SDS011;56677;51.710;5.366;2022-11-11T19:29:06;4.85;;;2.22;;
69485;SDS011;56677;51.710;5.366;2022-11-11T19:31:32;4.15;;;2.25;;
69485;SDS011;56677;51.710;5.366;2022-11-11T19:33:57;4.47;;;2.42;;
69485;SDS011;56677;51.710;5.366;2022-11-11T19:36:23;4.37;;;2.33;;
69485;SDS011;56677;51.710;5.366;2022-11-11T19:38:48;4.88;;;2.97;;
69485;SDS011;56677;51.710;5.366;2022-11-11T19:41:15;5.30;;;2.50;;
69485;SDS011;56677;51.710;5.366;2022-11-11T19:43:40;4.75;;;2.35;;
69485;SDS011;56677;51.710;5.366;2022-11-11T19:46:06;4.30;;;2.70;;
69485;SDS011;56677;51.710;5.366;2022-11-11T19:48:32;4.32;;;2.50;;
69485;SDS011;56677;51.710;5.366;2022-11-11T19:51:01;5.13;;;3.20;;
69485;SDS011;56677;51.710;5.366;2022-11-11T19:53:26;5.75;;;2.50;;
69485;SDS011;56677;51.710;5.366;2022-11-11T19:56:00;4.35;;;2.72;;
69485;SDS011;56677;51.710;5.366;2022-11-11T19:58:26;7.60;;;2.65;;
69485;SDS011;56677;51.710;5.366;2022-11-11T20:00:51;5.50;;;2.90;;
69485;SDS011;56677;51.710;5.366;2022-11-11T20:03:17;5.80;;;2.40;;
69485;SDS011;56677;51.710;5.366;2022-11-11T20:05:42;4.83;;;2.70;;
69485;SDS011;56677;51.710;5.366;2022-11-11T20:08:07;4.75;;;2.70;;
69485;SDS011;56677;51.710;5.366;2022-11-11T20:10:36;4.22;;;2.47;;
69485;SDS011;56677;51.710;5.366;2022-11-11T20:13:01;4.55;;;2.05;;
69485;SDS011;56677;51.710;5.366;2022-11-11T20:15:26;3.42;;;2.30;;
69485;SDS011;56677;51.710;5.366;2022-11-11T20:17:51;5.85;;;2.40;;
69485;SDS011;56677;51.710;5.366;2022-11-11T20:20:16;4.53;;;2.50;;
69485;SDS011;56677;51.710;5.366;2022-11-11T20:22:41;7.63;;;2.80;;
69485;SDS011;56677;51.710;5.366;2022-11-11T20:25:07;4.47;;;2.50;;
69485;SDS011;56677;51.710;5.366;2022-11-11T20:27:33;4.57;;;2.75;;
69485;SDS011;56677;51.710;5.366;2022-11-11T20:29:58;3.58;;;2.33;;
69485;SDS011;56677;51.710;5.366;2022-11-11T20:32:23;4.17;;;2.20;;
69485;SDS011;56677;51.710;5.366;2022-11-11T20:34:48;4.50;;;2.53;;
69485;SDS011;56677;51.710;5.366;2022-11-11T20:37:13;4.70;;;2.50;;
69485;SDS011;56677;51.710;5.366;2022-11-11T20:39:39;3.65;;;2.28;;
69485;SDS011;56677;51.710;5.366;2022-11-11T20:42:04;5.50;;;3.00;;
69485;SDS011;56677;51.710;5.366;2022-11-11T20:44:29;3.80;;;2.45;;
69485;SDS011;56677;51.710;5.366;2022-11-11T20:46:54;5.53;;;2.70;;
69485;SDS011;56677;51.710;5.366;2022-11-11T20:49:19;6.32;;;3.20;;
69485;SDS011;56677;51.710;5.366;2022-11-11T20:51:44;3.80;;;2.28;;
69485;SDS011;56677;51.710;5.366;2022-11-11T20:54:09;3.25;;;2.25;;
69485;SDS011;56677;51.710;5.366;2022-11-11T20:56:34;6.70;;;3.00;;
69485;SDS011;56677;51.710;5.366;2022-11-11T20:58:59;4.97;;;2.50;;
69485;SDS011;56677;51.710;5.366;2022-11-11T21:01:25;5.47;;;2.38;;
69485;SDS011;56677;51.710;5.366;2022-11-11T21:03:51;5.38;;;3.00;;
69485;SDS011;56677;51.710;5.366;2022-11-11T21:06:17;5.00;;;2.80;;
69485;SDS011;56677;51.710;5.366;2022-11-11T21:08:43;5.68;;;2.60;;
69485;SDS011;56677;51.710;5.366;2022-11-11T21:11:09;4.70;;;2.70;;
69485;SDS011;56677;51.710;5.366;2022-11-11T21:13:35;6.80;;;2.90;;
69485;SDS011;56677;51.710;5.366;2022-11-11T21:16:08;5.00;;;2.70;;
69485;SDS011;56677;51.710;5.366;2022-11-11T21:18:33;3.60;;;2.20;;
69485;SDS011;56677;51.710;5.366;2022-11-11T21:21:08;5.30;;;2.47;;
69485;SDS011;56677;51.710;5.366;2022-11-11T21:23:33;4.55;;;2.10;;
